Time;durP1;ratioP1;P1;durP2;ratioP2;P2;SDS_P1;SDS_P2;PMS_P1;PMS_P2;Temp;Humidity;BMP_temperature;BMP_pressure;BME280_temperature;BME280_humidity;BME280_pressure;Samples;Min_cycle;Max_cycle;Signal;HPM_P1;HPM_P2
2022/02/04 00:08:12;;;;;;;2.65;1.00;;;23.50;54.40;;;;;;4988906;28;20201;-47
2022/02/04 00:22:35;;;;;;;1.83;1.08;;;23.50;54.30;;;;;;4994528;28;20227;-42
2022/02/04 00:25:05;;;;;;;3.20;1.27;;;23.50;54.30;;;;;;4992018;28;20228;-53
2022/02/04 00:27:35;;;;;;;3.25;1.20;;;23.60;54.30;;;;;;4992382;28;20197;-44
2022/02/04 00:30:12;;;;;;;2.65;1.00;;;23.60;54.30;;;;;;4978040;28;20245;-45
2022/02/04 00:32:45;;;;;;;2.00;1.05;;;23.50;54.40;;;;;;4976093;28;20284;-44
2022/02/04 00:35:28;;;;;;;2.88;1.27;;;23.60;54.40;;;;;;4972763;28;20233;-50
2022/02/04 00:38:03;;;;;;;1.95;1.27;;;23.60;54.50;;;;;;4989400;28;20194;-46
2022/02/04 00:40:37;;;;;;;2.47;1.10;;;23.50;54.40;;;;;;5000929;28;20208;-46
2022/02/04 00:43:11;;;;;;;3.05;1.30;;;23.60;54.50;;;;;;4990367;28;20647;-49
2022/02/04 00:45:48;;;;;;;2.33;1.00;;;23.60;54.60;;;;;;4985092;28;20194;-56
2022/02/04 00:48:31;;;;;;;2.60;1.02;;;23.60;54.60;;;;;;5001204;28;20201;-50
2022/02/04 00:51:10;;;;;;;1.50;0.90;;;23.60;54.60;;;;;;5000939;28;20601;-47
2022/02/04 00:53:50;;;;;;;2.60;1.27;;;23.60;54.60;;;;;;4975067;28;20548;-49
2022/02/04 00:56:28;;;;;;;2.80;1.17;;;23.50;54.50;;;;;;4974119;28;20198;-46
2022/02/04 01:13:26;;;;;;;4.05;1.30;;;23.60;54.70;;;;;;4987601;28;20262;-50
2022/02/04 01:27:06;;;;;;;2.90;1.17;;;23.70;54.60;;;;;;4989413;28;20640;-56
2022/02/04 01:29:48;;;;;;;1.90;0.93;;;23.70;54.60;;;;;;5001647;28;20226;-54
2022/02/04 01:32:18;;;;;;;2.75;0.90;;;23.60;54.60;;;;;;5000593;28;20194;-49
2022/02/04 01:34:49;;;;;;;2.55;1.33;;;23.60;54.60;;;;;;4970796;28;20198;-49
2022/02/04 01:37:20;;;;;;;1.52;1.08;;;23.70;54.70;;;;;;4988972;28;20202;-54
2022/02/04 01:39:52;;;;;;;1.10;0.90;;;23.60;54.70;;;;;;4988034;28;20226;-49
2022/02/04 01:42:23;;;;;;;2.33;0.90;;;23.60;54.60;;;;;;4994350;28;20248;-56
2022/02/04 01:44:53;;;;;;;1.70;0.90;;;23.70;54.60;;;;;;4992337;28;20218;-51
2022/02/04 01:47:24;;;;;;;1.83;1.00;;;23.70;54.60;;;;;;4997634;28;20274;-53
2022/02/04 01:49:55;;;;;;;1.05;0.82;;;23.70;54.60;;;;;;4978155;28;20217;-46
2022/02/04 01:52:26;;;;;;;1.23;0.80;;;23.70;54.60;;;;;;4991102;28;20193;-50
2022/02/04 01:54:59;;;;;;;1.83;1.15;;;23.70;54.60;;;;;;4992254;28;20556;-54
2022/02/04 01:57:29;;;;;;;1.95;1.17;;;23.70;54.60;;;;;;4998564;28;20204;-44
2022/02/04 02:00:00;;;;;;;1.42;1.00;;;23.70;54.80;;;;;;4999871;28;20224;-52
2022/02/04 02:02:31;;;;;;;1.52;1.00;;;23.70;55.00;;;;;;4997267;28;20264;-47
2022/02/04 02:05:01;;;;;;;1.88;1.10;;;23.70;54.90;;;;;;4980069;28;20593;-47
2022/02/04 02:07:39;;;;;;;2.35;0.95;;;23.70;54.90;;;;;;4992837;28;20210;-51
2022/02/04 02:10:16;;;;;;;2.28;1.38;;;23.70;54.80;;;;;;4990094;28;20224;-45
2022/02/04 02:12:55;;;;;;;1.48;1.10;;;23.70;54.70;;;;;;4982732;28;20185;-50
2022/02/04 02:15:32;;;;;;;2.38;1.15;;;23.70;54.60;;;;;;4991508;28;20205;-46
2022/02/04 02:35:15;;;;;;;1.85;1.10;;;23.70;54.80;;;;;;4991551;28;20594;-54
2022/02/04 02:43:33;;;;;;;2.13;1.10;;;23.80;54.70;;;;;;4979340;28;20463;-48
2022/02/04 02:46:22;;;;;;;1.70;1.23;;;23.80;54.70;;;;;;4976632;28;20214;-45
2022/02/04 02:49:11;;;;;;;1.35;0.98;;;23.80;54.90;;;;;;4974863;28;20959;-44
2022/02/04 02:52:06;;;;;;;1.60;1.13;;;23.70;54.80;;;;;;4991705;28;20668;-53
2022/02/04 02:55:01;;;;;;;1.50;1.10;;;23.80;54.60;;;;;;4974391;28;20202;-50
2022/02/04 02:57:56;;;;;;;1.20;0.88;;;23.70;54.60;;;;;;4991003;28;20200;-53
2022/02/04 03:00:43;;;;;;;1.48;1.00;;;23.80;54.60;;;;;;4975112;28;20694;-49
2022/02/04 03:03:15;;;;;;;2.55;1.10;;;23.80;54.70;;;;;;5006491;28;20193;-53
2022/02/04 03:05:46;;;;;;;2.72;1.10;;;23.80;54.70;;;;;;4991491;28;20228;-44
2022/02/04 03:08:17;;;;;;;1.60;1.00;;;23.70;54.70;;;;;;4990550;28;20201;-52
2022/02/04 03:10:48;;;;;;;1.27;1.02;;;23.80;55.40;;;;;;4995524;28;20197;-50
2022/02/04 03:13:20;;;;;;;1.38;1.00;;;23.80;54.90;;;;;;5002460;28;20201;-45
2022/02/04 03:15:58;;;;;;;1.50;1.20;;;23.70;54.90;;;;;;4990049;28;20193;-52
2022/02/04 03:18:32;;;;;;;1.65;1.20;;;23.80;55.00;;;;;;4990268;28;20197;-44
2022/02/04 03:21:08;;;;;;;1.38;1.00;;;23.70;54.90;;;;;;4991440;28;20289;-45
2022/02/04 03:23:41;;;;;;;1.42;1.00;;;23.80;54.80;;;;;;4978266;28;20272;-51
2022/02/04 03:26:18;;;;;;;1.80;1.13;;;23.70;54.80;;;;;;4978428;28;20206;-45
2022/02/04 03:28:51;;;;;;;1.42;1.00;;;23.70;54.80;;;;;;4983217;28;20598;-49
2022/02/04 03:31:22;;;;;;;1.75;0.90;;;23.70;54.80;;;;;;4989625;28;20201;-46
2022/02/04 03:33:53;;;;;;;1.45;1.10;;;23.70;54.80;;;;;;4998810;28;20616;-45
2022/02/04 03:36:24;;;;;;;1.30;1.00;;;23.70;54.80;;;;;;5007509;28;20201;-50
2022/02/04 03:38:54;;;;;;;1.55;0.95;;;23.70;54.80;;;;;;4975710;28;20234;-48
2022/02/04 03:41:25;;;;;;;1.98;1.20;;;23.70;54.80;;;;;;4977531;28;20198;-39
2022/02/04 03:43:57;;;;;;;1.15;1.00;;;23.70;54.80;;;;;;4984181;28;20279;-53
2022/02/04 03:46:28;;;;;;;1.08;0.98;;;23.70;54.80;;;;;;4989889;28;20197;-53
2022/02/04 03:48:58;;;;;;;1.35;0.90;;;23.70;54.90;;;;;;4990523;28;20222;-42
2022/02/04 03:51:29;;;;;;;1.35;1.00;;;23.70;54.90;;;;;;5004581;28;20259;-52
2022/02/04 03:54:00;;;;;;;1.73;1.23;;;23.70;55.00;;;;;;4989535;28;20202;-45
2022/02/04 03:56:30;;;;;;;1.45;1.15;;;23.70;55.00;;;;;;5004147;28;20201;-41
2022/02/04 03:59:03;;;;;;;1.60;1.00;;;23.70;55.00;;;;;;4992394;28;20229;-51
2022/02/04 04:01:33;;;;;;;1.90;0.90;;;23.70;55.00;;;;;;4988735;28;20212;-47
2022/02/04 04:04:04;;;;;;;0.80;0.80;;;23.70;55.10;;;;;;4988772;28;20283;-48
2022/02/04 04:06:34;;;;;;;1.30;1.00;;;23.70;55.10;;;;;;4990102;28;20260;-40
2022/02/04 04:09:05;;;;;;;1.48;1.00;;;23.70;55.10;;;;;;4974141;28;20276;-39
2022/02/04 04:11:41;;;;;;;1.52;1.10;;;23.70;55.00;;;;;;4989710;28;20668;-45
2022/02/04 04:14:16;;;;;;;2.97;1.10;;;23.70;55.00;;;;;;4989257;28;20287;-43
2022/02/04 04:16:47;;;;;;;1.52;1.00;;;23.70;54.90;;;;;;4988552;28;20284;-44
2022/02/04 04:19:18;;;;;;;1.08;0.88;;;23.70;54.90;;;;;;4990043;28;20225;-39
2022/02/04 04:21:48;;;;;;;1.80;1.30;;;23.70;54.90;;;;;;4990444;28;20267;-43
2022/02/04 04:24:19;;;;;;;1.20;1.10;;;23.70;55.00;;;;;;5000245;28;20745;-39
2022/02/04 04:26:49;;;;;;;1.73;1.20;;;23.70;55.10;;;;;;4973946;28;20201;-41
2022/02/04 04:29:25;;;;;;;13.32;8.98;;;23.70;55.10;;;;;;4987111;28;20256;-49
2022/02/04 04:31:55;;;;;;;17.17;15.48;;;23.70;55.30;;;;;;4989632;28;20564;-48
2022/02/04 04:34:26;;;;;;;15.13;13.40;;;23.70;55.50;;;;;;4989717;28;20260;-46
2022/02/04 04:36:56;;;;;;;13.43;12.07;;;23.70;55.80;;;;;;4993558;28;20196;-47
2022/02/04 04:39:42;;;;;;;10.18;9.18;;;23.70;56.10;;;;;;4999332;28;20744;-43
2022/02/04 04:42:29;;;;;;;9.35;8.35;;;23.70;56.10;;;;;;4987750;28;20200;-49
2022/02/04 04:45:43;;;;;;;9.18;8.30;;;23.70;56.00;;;;;;4990268;28;20223;-55
2022/02/04 05:27:56;;;;;;;6.50;5.90;;;23.50;55.50;;;;;;5006941;28;20235;-47
2022/02/04 05:30:34;;;;;;;6.72;6.13;;;23.60;55.60;;;;;;5005315;28;20252;-40
2022/02/04 05:33:05;;;;;;;6.05;5.53;;;23.60;55.60;;;;;;5008281;28;20813;-42
2022/02/04 05:35:38;;;;;;;6.07;5.47;;;23.60;55.70;;;;;;5008270;28;20944;-40
2022/02/04 05:38:11;;;;;;;5.72;5.20;;;23.50;55.70;;;;;;5009851;28;20193;-53
2022/02/04 05:40:44;;;;;;;5.78;5.00;;;23.50;55.70;;;;;;5009143;28;20314;-40
2022/02/04 05:43:20;;;;;;;6.78;5.25;;;23.60;55.70;;;;;;5003140;28;20193;-43
2022/02/04 05:45:59;;;;;;;5.93;5.32;;;23.50;55.60;;;;;;5006782;28;20233;-40
2022/02/04 05:48:33;;;;;;;6.38;5.57;;;23.60;55.60;;;;;;5006374;28;20224;-44
2022/02/04 05:51:26;;;;;;;5.82;5.22;;;23.50;55.50;;;;;;5006540;28;20224;-48
2022/02/04 05:54:03;;;;;;;5.25;4.75;;;23.50;55.60;;;;;;5008970;28;20201;-42
2022/02/04 05:56:41;;;;;;;5.53;5.00;;;23.50;55.60;;;;;;5006713;28;20205;-43
2022/02/04 05:59:23;;;;;;;5.32;4.82;;;23.50;55.60;;;;;;5008312;28;20221;-46
2022/02/04 06:02:04;;;;;;;6.70;4.78;;;23.50;55.60;;;;;;5009582;28;20193;-42
2022/02/04 06:04:49;;;;;;;6.32;5.10;;;23.50;55.50;;;;;;5009165;28;20723;-43
2022/02/04 06:07:30;;;;;;;4.70;4.30;;;23.50;55.50;;;;;;5009905;28;20205;-47
2022/02/04 06:10:30;;;;;;;5.18;4.70;;;23.50;55.50;;;;;;5008666;28;20260;-42
2022/02/04 06:13:18;;;;;;;4.85;4.43;;;23.50;55.50;;;;;;5007231;28;21061;-45
2022/02/04 06:24:09;;;;;;;4.50;4.05;;;23.50;55.70;;;;;;5006795;28;20208;-41
2022/02/04 06:26:40;;;;;;;4.15;3.85;;;23.50;55.70;;;;;;5007593;28;20251;-44
2022/02/04 06:29:11;;;;;;;4.25;3.85;;;23.40;55.60;;;;;;5006091;28;20217;-40
2022/02/04 06:31:43;;;;;;;4.45;3.55;;;23.40;55.60;;;;;;5008134;28;20243;-47
2022/02/04 06:34:14;;;;;;;4.65;3.85;;;23.40;55.60;;;;;;5007625;28;20224;-51
2022/02/04 06:36:44;;;;;;;4.18;3.67;;;23.40;55.60;;;;;;5008262;28;20197;-47
2022/02/04 06:39:17;;;;;;;4.05;3.65;;;23.40;55.60;;;;;;5007736;28;20271;-42
2022/02/04 06:41:47;;;;;;;4.22;3.22;;;23.40;55.50;;;;;;5006565;28;20205;-47
2022/02/04 06:44:18;;;;;;;4.22;3.53;;;23.40;55.50;;;;;;5006481;28;20236;-47
2022/02/04 06:46:48;;;;;;;3.80;3.45;;;23.40;55.50;;;;;;5006179;28;20258;-45
2022/02/04 06:49:19;;;;;;;4.13;3.72;;;23.40;55.50;;;;;;5006906;28;20217;-42
2022/02/04 06:51:50;;;;;;;4.03;3.63;;;23.40;55.50;;;;;;5007773;28;20540;-46
2022/02/04 06:54:22;;;;;;;4.10;3.65;;;23.40;55.50;;;;;;5005374;28;20263;-45
2022/02/04 06:56:54;;;;;;;3.45;3.15;;;23.40;55.50;;;;;;4998153;28;20264;-46
2022/02/04 06:59:25;;;;;;;3.33;3.03;;;23.40;55.40;;;;;;4989369;28;20233;-53
2022/02/04 07:01:55;;;;;;;19.73;4.50;;;23.40;55.50;;;;;;4990386;28;21657;-40
2022/02/04 07:04:30;;;;;;;9.43;4.32;;;23.40;55.50;;;;;;4988963;28;20217;-53
2022/02/04 07:07:02;;;;;;;7.22;3.72;;;23.30;55.50;;;;;;4990218;28;20792;-46
2022/02/04 07:09:44;;;;;;;4.88;3.50;;;23.40;55.60;;;;;;4990480;28;20299;-50
2022/02/04 07:12:32;;;;;;;3.72;3.28;;;23.40;55.50;;;;;;4989486;28;20291;-41
2022/02/04 07:15:27;;;;;;;5.75;3.47;;;23.30;55.50;;;;;;4991211;28;20209;-44
2022/02/04 07:19:44;;;;;;;3.85;3.30;;;23.30;55.50;;;;;;4990702;28;20729;-43
2022/02/04 07:20:52;;;;;;;4.35;3.40;;;23.30;55.50;;;;;;4989010;28;20746;-43
2022/02/04 07:23:22;;;;;;;4.55;3.35;;;23.30;55.40;;;;;;4990960;28;20209;-42
2022/02/04 07:25:55;;;;;;;5.05;3.63;;;23.30;55.50;;;;;;4992297;28;20764;-42
2022/02/04 07:28:29;;;;;;;3.60;3.10;;;23.30;55.50;;;;;;4990989;28;20250;-46
2022/02/04 07:31:01;;;;;;;4.55;3.30;;;23.30;55.50;;;;;;5005355;28;20205;-47
2022/02/04 07:41:55;;;;;;;4.75;3.78;;;23.30;55.50;;;;;;4979528;28;20224;-54
2022/02/04 07:44:25;;;;;;;6.03;4.40;;;23.30;55.50;;;;;;4981650;28;20263;-48
2022/02/04 07:46:56;;;;;;;6.80;4.75;;;23.20;55.40;;;;;;4984608;28;20201;-46
2022/02/04 07:49:26;;;;;;;6.00;4.63;;;23.20;55.40;;;;;;4986700;28;20226;-47
2022/02/04 07:51:57;;;;;;;6.47;4.65;;;23.20;55.50;;;;;;4980909;28;20209;-53
2022/02/04 07:54:28;;;;;;;9.48;5.18;;;23.20;55.50;;;;;;4989261;28;20197;-43
2022/02/04 07:57:00;;;;;;;7.00;4.70;;;23.20;55.50;;;;;;4990409;28;20206;-47
2022/02/04 07:59:31;;;;;;;8.48;5.32;;;23.20;55.50;;;;;;4990438;28;20218;-47
2022/02/04 08:02:01;;;;;;;6.63;4.57;;;23.20;55.50;;;;;;4990388;28;20728;-50
2022/02/04 08:04:34;;;;;;;6.15;4.75;;;23.20;55.50;;;;;;4990092;28;20198;-43
2022/02/04 08:07:09;;;;;;;5.88;4.53;;;23.20;55.80;;;;;;4989576;28;20194;-49
2022/02/04 08:09:49;;;;;;;6.57;4.40;;;23.20;55.50;;;;;;4975819;28;20220;-55
2022/02/04 08:15:14;;;;;;;6.95;4.72;;;23.20;55.40;;;;;;5004622;28;20262;-49
2022/02/04 08:20:59;;;;;;;8.18;4.70;;;23.20;55.40;;;;;;4990037;28;20217;-55
2022/02/04 08:24:00;;;;;;;6.20;4.30;;;23.20;55.40;;;;;;4982611;28;20206;-47
2022/02/04 08:27:03;;;;;;;5.57;4.40;;;23.10;55.30;;;;;;4990219;28;20232;-52
2022/02/04 08:32:37;;;;;;;6.13;4.25;;;23.10;55.30;;;;;;4972506;28;20195;-57
2022/02/04 08:35:26;;;;;;;6.10;4.50;;;23.10;55.30;;;;;;4989577;28;20202;-49
2022/02/04 08:54:45;;;;;;;3.90;3.47;;;23.00;55.30;;;;;;4979004;28;20194;-54
2022/02/04 08:57:28;;;;;;;5.07;3.78;;;23.00;55.30;;;;;;4989495;28;20200;-55
2022/02/04 09:00:08;;;;;;;5.80;4.35;;;23.00;55.30;;;;;;4974194;28;20225;-50
2022/02/04 09:02:51;;;;;;;5.03;3.88;;;23.00;55.40;;;;;;4989341;28;20708;-51
2022/02/04 09:05:30;;;;;;;6.25;4.32;;;23.00;55.40;;;;;;4990277;28;20225;-49
2022/02/04 09:08:17;;;;;;;4.32;3.35;;;23.00;55.30;;;;;;4987844;28;20229;-45
2022/02/04 09:10:49;;;;;;;3.63;3.20;;;23.00;55.30;;;;;;4988837;28;20878;-55
2022/02/04 09:19:03;;;;;;;4.57;3.53;;;23.00;55.30;;;;;;4970765;28;20303;-51
2022/02/04 09:22:03;;;;;;;4.07;3.03;;;23.00;55.30;;;;;;4997165;28;20204;-58
2022/02/04 09:24:34;;;;;;;5.68;3.58;;;23.00;55.60;;;;;;4985563;28;20202;-55
2022/02/04 09:27:05;;;;;;;4.13;3.50;;;23.00;55.30;;;;;;4976739;28;20255;-55
2022/02/04 09:29:35;;;;;;;3.40;3.10;;;22.90;55.30;;;;;;4987085;28;20222;-59
2022/02/04 09:32:06;;;;;;;4.68;3.30;;;22.90;55.40;;;;;;4989203;28;20248;-54
2022/02/04 09:34:39;;;;;;;4.13;3.13;;;22.90;55.30;;;;;;4988996;28;20216;-57
2022/02/04 09:37:09;;;;;;;4.45;2.88;;;22.90;55.40;;;;;;4979488;28;20198;-56
2022/02/04 09:39:40;;;;;;;3.88;3.28;;;22.90;55.30;;;;;;4983097;28;20570;-57
2022/02/04 09:42:11;;;;;;;4.15;3.13;;;22.90;55.40;;;;;;4989263;28;20197;-57
2022/02/04 09:44:41;;;;;;;4.05;2.95;;;22.90;55.30;;;;;;4988264;28;20201;-56
2022/02/04 09:47:12;;;;;;;3.80;3.10;;;22.90;55.40;;;;;;4989405;28;20666;-57
2022/02/04 09:49:50;;;;;;;3.20;2.80;;;22.90;55.30;;;;;;4989550;28;20252;-53
2022/02/04 10:09:44;;;;;;;3.47;2.83;;;22.80;55.20;;;;;;4989287;28;20312;-57
2022/02/04 10:12:50;;;;;;;3.13;2.53;;;22.80;55.20;;;;;;4978422;28;20197;-57
2022/02/04 10:15:28;;;;;;;3.78;2.63;;;22.80;55.20;;;;;;4985583;28;20670;-55
2022/02/04 10:18:05;;;;;;;3.47;2.75;;;22.80;55.20;;;;;;4996318;28;20201;-58
2022/02/04 10:20:36;;;;;;;3.05;2.67;;;22.80;55.20;;;;;;5000263;28;20225;-58
2022/02/04 10:23:09;;;;;;;2.95;2.50;;;22.80;55.30;;;;;;4991020;28;20669;-58
2022/02/04 10:25:40;;;;;;;3.75;2.67;;;22.80;55.30;;;;;;4992790;28;20229;-53
2022/02/04 10:28:24;;;;;;;3.13;2.60;;;22.80;55.30;;;;;;4991420;28;20205;-57
2022/02/04 10:31:08;;;;;;;2.72;2.33;;;22.70;55.30;;;;;;5001669;22;20233;-49
2022/02/04 10:33:57;;;;;;;3.38;2.58;;;22.70;55.30;;;;;;4988619;28;20201;-48
2022/02/04 10:36:49;;;;;;;3.65;2.40;;;22.70;55.20;;;;;;4980167;28;20616;-44
2022/02/04 10:39:55;;;;;;;2.35;2.10;;;22.70;55.20;;;;;;4987098;28;20226;-58
2022/02/04 10:42:34;;;;;;;3.42;2.60;;;22.70;55.20;;;;;;4991725;28;20257;-60
2022/02/04 10:45:30;;;;;;;3.08;2.70;;;22.70;55.20;;;;;;4991607;28;20212;-58
2022/02/04 10:48:16;;;;;;;2.92;2.58;;;22.70;55.20;;;;;;4991817;28;20206;-59
2022/02/04 10:51:12;;;;;;;2.75;2.30;;;22.70;55.20;;;;;;4991300;28;20225;-56
2022/02/04 10:54:03;;;;;;;3.45;2.25;;;22.70;55.20;;;;;;4983871;28;20209;-56
2022/02/04 11:00:00;;;;;;;3.10;2.38;;;22.70;55.20;;;;;;5099331;27;20553;-55
2022/02/04 11:02:53;;;;;;;2.33;1.98;;;22.70;55.20;;;;;;5082526;28;20289;-52
2022/02/04 11:05:30;;;;;;;3.08;2.33;;;22.60;55.20;;;;;;5080717;28;20199;-53
2022/02/04 11:08:25;;;;;;;2.80;2.58;;;22.60;55.20;;;;;;5071012;28;20201;-49
2022/02/04 11:33:51;;;;;;;3.33;2.10;;;22.50;56.00;;;;;;5069567;28;20290;-43
2022/02/04 11:36:38;;;;;;;3.45;2.60;;;22.50;55.40;;;;;;5069330;28;20234;-45
2022/02/04 11:51:47;;;;;;;3.13;2.10;;;22.50;55.30;;;;;;5066524;28;20255;-47
2022/02/04 11:54:41;;;;;;;3.40;2.30;;;22.50;55.30;;;;;;5085259;28;20285;-56
2022/02/04 11:57:23;;;;;;;4.07;2.33;;;22.40;55.30;;;;;;5068837;28;20276;-49
2022/02/04 11:59:59;;;;;;;3.58;2.30;;;22.40;55.30;;;;;;5082385;28;20242;-51
2022/02/04 12:02:37;;;;;;;3.67;2.28;;;22.40;55.30;;;;;;5073300;28;20609;-52
2022/02/04 12:05:31;;;;;;;5.85;2.28;;;22.40;55.40;;;;;;5068193;28;20666;-49
2022/02/04 12:08:30;;;;;;;3.47;2.05;;;22.40;55.40;;;;;;5077593;28;20194;-51
2022/02/04 12:11:03;;;;;;;4.30;2.20;;;22.40;55.30;;;;;;5065999;28;20653;-51
2022/02/04 12:13:54;;;;;;;3.85;2.40;;;22.40;55.30;;;;;;5060802;28;20207;-43
2022/02/04 12:16:25;;;;;;;3.80;2.40;;;22.40;55.40;;;;;;5056716;28;20253;-48
2022/02/04 12:19:10;;;;;;;2.47;2.10;;;22.40;55.30;;;;;;5055397;28;20265;-53
2022/02/04 12:21:51;;;;;;;3.80;2.38;;;22.40;55.40;;;;;;5053600;28;20206;-53
2022/02/04 12:24:36;;;;;;;2.90;2.15;;;22.30;55.30;;;;;;5054220;28;20226;-54
2022/02/04 12:27:45;;;;;;;2.92;1.90;;;22.30;55.20;;;;;;5053944;28;20207;-45
2022/02/04 12:30:46;;;;;;;3.40;2.05;;;22.30;55.20;;;;;;5007752;28;20231;-52
2022/02/04 12:33:17;;;;;;;3.17;2.10;;;22.30;55.20;;;;;;4995489;28;20196;-54
2022/02/04 12:35:48;;;;;;;3.28;1.90;;;22.30;55.20;;;;;;5055538;28;20743;-40
2022/02/04 12:38:21;;;;;;;2.42;1.83;;;22.30;55.20;;;;;;5068420;28;20277;-49
2022/02/04 12:41:00;;;;;;;3.30;2.30;;;22.30;55.20;;;;;;5052232;28;20227;-55
2022/02/04 12:43:35;;;;;;;2.90;2.10;;;22.30;55.30;;;;;;5053221;28;20245;-48
2022/02/04 12:46:06;;;;;;;2.80;2.15;;;22.30;55.30;;;;;;5051377;28;20201;-50
2022/02/04 12:48:37;;;;;;;3.25;1.88;;;22.30;55.30;;;;;;5071065;28;20207;-55
2022/02/04 12:51:09;;;;;;;3.63;1.80;;;22.30;55.30;;;;;;5069173;28;20215;-44
2022/02/04 12:53:47;;;;;;;2.78;2.10;;;22.20;55.20;;;;;;5068623;28;20233;-47
2022/02/04 12:56:35;;;;;;;2.55;1.92;;;22.20;55.20;;;;;;5068265;28;20205;-48
2022/02/04 13:02:16;;;;;;;2.78;2.20;;;22.20;55.20;;;;;;5041452;28;20242;-51
2022/02/04 13:07:48;;;;;;;2.30;2.05;;;22.20;55.10;;;;;;5053314;28;20662;-46
2022/02/04 13:10:26;;;;;;;2.30;1.80;;;22.20;55.20;;;;;;5054219;28;20215;-50
2022/02/04 13:13:01;;;;;;;2.65;1.90;;;22.20;55.20;;;;;;5060246;28;20802;-46
2022/02/04 13:15:33;;;;;;;1.80;1.65;;;22.20;55.20;;;;;;5052923;28;20199;-45
2022/02/04 13:18:07;;;;;;;2.72;1.90;;;22.20;55.20;;;;;;5068089;28;20963;-51
2022/02/04 13:20:39;;;;;;;2.83;2.00;;;22.20;55.20;;;;;;5053657;28;20224;-49
2022/02/04 13:23:12;;;;;;;2.22;1.67;;;22.20;55.10;;;;;;5054404;28;20261;-50
2022/02/04 13:25:48;;;;;;;3.00;1.95;;;22.20;55.10;;;;;;5064363;28;20565;-42
2022/02/04 13:28:20;;;;;;;2.50;1.90;;;22.20;55.20;;;;;;5067902;28;20203;-46
2022/02/04 13:30:59;;;;;;;3.38;1.95;;;22.10;55.20;;;;;;5034576;23;20240;-50
2022/02/04 13:33:31;;;;;;;2.80;1.92;;;22.10;55.20;;;;;;5008949;28;20200;-54
2022/02/04 13:36:07;;;;;;;2.28;1.55;;;22.10;55.20;;;;;;5004483;28;20233;-54
2022/02/04 13:38:49;;;;;;;2.38;1.70;;;22.10;55.20;;;;;;4996582;28;20256;-57
2022/02/04 13:41:37;;;;;;;3.15;1.80;;;22.10;55.20;;;;;;4989083;28;20197;-51
2022/02/04 13:44:26;;;;;;;2.00;1.80;;;22.10;55.20;;;;;;4989284;28;20299;-50
2022/02/04 13:47:13;;;;;;;2.47;1.75;;;22.10;55.10;;;;;;4989174;28;20284;-59
2022/02/04 13:50:06;;;;;;;1.77;1.67;;;22.10;55.10;;;;;;4988677;28;20225;-54
2022/02/04 13:52:55;;;;;;;2.75;1.98;;;22.00;55.10;;;;;;4989222;28;20879;-52
2022/02/04 13:55:34;;;;;;;2.08;1.80;;;22.10;55.10;;;;;;4989080;28;20208;-52
2022/02/04 13:58:18;;;;;;;2.00;1.65;;;22.00;55.10;;;;;;4974730;28;20208;-46
2022/02/04 14:00:57;;;;;;;1.95;1.40;;;22.00;55.10;;;;;;4985038;28;20224;-55
2022/02/04 14:03:31;;;;;;;2.15;1.75;;;22.00;55.10;;;;;;4989188;28;20224;-49
2022/02/04 14:06:07;;;;;;;2.78;1.80;;;22.00;55.10;;;;;;4990112;28;20212;-48
2022/02/04 14:08:47;;;;;;;2.47;1.52;;;22.00;55.10;;;;;;4990504;28;20288;-49
2022/02/04 14:11:32;;;;;;;1.85;1.42;;;22.00;55.10;;;;;;4989846;28;20292;-52
2022/02/04 14:14:07;;;;;;;1.58;1.48;;;22.00;55.10;;;;;;4987880;28;20201;-56
2022/02/04 14:16:38;;;;;;;1.80;1.50;;;22.00;55.10;;;;;;4988107;28;20268;-56
2022/02/04 14:19:12;;;;;;;1.42;1.30;;;22.00;55.10;;;;;;4988320;28;20221;-58
2022/02/04 14:21:42;;;;;;;3.38;2.00;;;22.00;55.10;;;;;;4988543;28;20312;-53
2022/02/04 14:24:14;;;;;;;3.00;1.70;;;22.00;55.20;;;;;;4988668;28;20194;-56
2022/02/04 14:26:47;;;;;;;1.70;1.60;;;21.90;55.10;;;;;;4988414;28;20229;-52
2022/02/04 14:29:24;;;;;;;2.38;1.60;;;21.90;55.10;;;;;;5000299;22;20225;-54
2022/02/04 14:32:00;;;;;;;2.00;1.40;;;21.90;55.10;;;;;;4984162;28;20283;-44
2022/02/04 14:34:54;;;;;;;2.15;1.60;;;21.90;55.10;;;;;;4972203;28;20202;-41
2022/02/04 14:37:44;;;;;;;2.47;1.83;;;21.90;55.10;;;;;;4989534;28;20201;-42
2022/02/04 14:54:47;;;;;;;1.90;1.60;;;21.90;55.10;;;;;;4972674;28;20262;-51
2022/02/04 15:00:31;;;;;;;1.40;1.30;;;21.80;55.00;;;;;;4985021;28;20237;-42
2022/02/04 15:06:00;;;;;;;2.10;1.73;;;21.80;55.10;;;;;;4984175;28;20198;-43
2022/02/04 15:08:37;;;;;;;3.25;1.33;;;21.80;55.10;;;;;;4987810;28;20201;-40
2022/02/04 15:11:14;;;;;;;1.67;1.58;;;21.80;55.10;;;;;;4983407;28;20268;-42
2022/02/04 15:13:45;;;;;;;1.90;1.38;;;21.80;55.10;;;;;;4973532;28;20212;-45
2022/02/04 15:16:16;;;;;;;2.30;1.25;;;21.80;55.10;;;;;;4974205;28;20210;-49
2022/02/04 15:18:51;;;;;;;1.42;1.30;;;21.80;55.10;;;;;;4983089;28;20256;-43
2022/02/04 15:21:25;;;;;;;2.15;1.40;;;21.80;55.10;;;;;;4980599;28;20338;-44
2022/02/04 15:23:58;;;;;;;1.48;1.15;;;21.80;55.10;;;;;;4979020;28;20198;-50
2022/02/04 15:26:30;;;;;;;1.80;1.10;;;21.80;55.10;;;;;;4987078;28;20284;-57
2022/02/04 15:29:04;;;;;;;1.30;1.20;;;21.80;55.10;;;;;;4988124;28;20257;-43
2022/02/04 15:31:41;;;;;;;1.50;1.40;;;21.70;55.10;;;;;;4972800;28;20198;-40
2022/02/04 15:34:15;;;;;;;1.40;1.10;;;21.70;55.10;;;;;;4973331;28;20282;-54
2022/02/04 15:36:48;;;;;;;1.50;1.30;;;21.70;55.00;;;;;;4972349;28;20252;-48
2022/02/04 15:39:20;;;;;;;1.58;1.30;;;21.70;55.00;;;;;;4987612;28;20630;-51
2022/02/04 15:41:53;;;;;;;1.83;1.40;;;21.70;55.00;;;;;;4973773;28;20210;-50
2022/02/04 15:44:35;;;;;;;1.30;1.20;;;21.70;55.00;;;;;;4975042;28;20198;-51
2022/02/04 15:47:28;;;;;;;1.90;1.17;;;21.70;55.00;;;;;;4989260;28;20201;-48
2022/02/04 15:53:19;;;;;;;1.33;1.15;;;21.70;55.10;;;;;;4975794;28;20353;-52
2022/02/04 15:56:16;;;;;;;1.48;1.25;;;21.70;55.10;;;;;;4977040;28;20294;-42
2022/02/04 16:04:28;;;;;;;1.52;1.02;;;21.70;55.00;;;;;;4978229;28;20604;-43
2022/02/04 16:07:00;;;;;;;1.45;1.10;;;21.70;55.10;;;;;;4989108;28;20201;-44
2022/02/04 16:09:31;;;;;;;1.30;1.20;;;21.60;55.10;;;;;;4988495;28;20763;-51
2022/02/04 16:12:08;;;;;;;1.60;1.40;;;21.60;55.00;;;;;;4985266;28;20201;-47
2022/02/04 16:14:44;;;;;;;2.15;1.23;;;21.60;55.10;;;;;;4980831;28;20657;-45
2022/02/04 16:17:22;;;;;;;1.80;1.33;;;21.60;55.10;;;;;;4977847;28;21453;-48
2022/02/04 16:20:08;;;;;;;1.52;1.20;;;21.60;55.10;;;;;;4991452;28;20232;-49
2022/02/04 16:22:58;;;;;;;1.08;0.98;;;21.60;55.00;;;;;;4991157;28;20280;-55
2022/02/04 16:25:41;;;;;;;1.70;1.08;;;21.60;55.00;;;;;;4976453;28;20275;-55
2022/02/04 16:33:46;;;;;;;1.77;1.00;;;21.60;55.00;;;;;;5610229;22;20228;-54
2022/02/04 16:36:21;;;;;;;1.42;1.02;;;21.60;55.10;;;;;;4996662;28;20211;-54
2022/02/04 16:38:55;;;;;;;1.20;1.10;;;21.60;55.10;;;;;;5011453;28;20220;-50
2022/02/04 16:41:31;;;;;;;1.08;0.93;;;21.50;55.00;;;;;;4991900;28;20274;-58
2022/02/04 16:44:02;;;;;;;1.33;1.00;;;21.60;55.10;;;;;;4992070;28;20640;-55
2022/02/04 16:46:32;;;;;;;1.50;1.15;;;21.50;55.00;;;;;;4992218;28;20267;-52
2022/02/04 16:49:03;;;;;;;1.13;1.02;;;21.50;55.00;;;;;;4992233;28;20677;-46
2022/02/04 16:51:33;;;;;;;1.13;1.00;;;21.50;55.10;;;;;;4992048;28;20716;-55
2022/02/04 16:54:06;;;;;;;1.00;0.90;;;21.50;55.00;;;;;;4992381;28;20205;-50
2022/02/04 16:56:37;;;;;;;0.90;0.85;;;21.50;55.00;;;;;;4992237;28;20606;-48
2022/02/04 16:59:07;;;;;;;0.98;0.90;;;21.50;55.10;;;;;;4990902;28;20225;-54
2022/02/04 17:01:38;;;;;;;0.93;0.90;;;21.50;55.00;;;;;;4973244;28;20673;-54
2022/02/04 17:04:08;;;;;;;0.90;0.80;;;21.50;55.00;;;;;;4972850;28;20202;-48
2022/02/04 17:06:42;;;;;;;2.00;1.08;;;21.50;55.00;;;;;;4978396;28;20268;-47
2022/02/04 17:09:27;;;;;;;1.13;0.82;;;21.50;55.00;;;;;;4992028;28;20201;-52
2022/02/04 17:12:02;;;;;;;1.77;1.08;;;21.50;55.00;;;;;;4992623;28;20201;-54
2022/02/04 17:14:34;;;;;;;0.90;0.90;;;21.50;55.00;;;;;;4992286;28;20674;-54
2022/02/04 17:17:07;;;;;;;1.45;1.02;;;21.50;55.00;;;;;;4992325;28;20197;-51
2022/02/04 17:19:44;;;;;;;1.17;1.00;;;21.50;55.00;;;;;;4991810;28;20229;-56
2022/02/04 17:22:15;;;;;;;1.08;0.98;;;21.40;55.00;;;;;;4991327;28;20194;-47
2022/02/04 17:24:48;;;;;;;0.93;0.85;;;21.40;55.00;;;;;;4992166;28;20221;-55
2022/02/04 17:27:19;;;;;;;1.13;1.02;;;21.40;55.00;;;;;;4991968;28;20201;-54
2022/02/04 17:29:50;;;;;;;1.08;0.93;;;21.40;55.00;;;;;;5003141;22;20222;-53
2022/02/04 17:32:21;;;;;;;1.02;0.93;;;21.40;55.00;;;;;;4992135;28;20616;-52
2022/02/04 17:34:52;;;;;;;1.42;0.90;;;21.50;55.00;;;;;;4991976;28;20204;-40
2022/02/04 17:37:22;;;;;;;1.17;1.00;;;21.40;55.00;;;;;;5001817;28;20200;-49
2022/02/04 17:39:55;;;;;;;0.90;0.80;;;21.40;55.60;;;;;;5011230;28;20295;-55
2022/02/04 17:42:27;;;;;;;1.05;0.95;;;21.40;55.00;;;;;;4991496;28;20537;-43
2022/02/04 17:44:57;;;;;;;1.05;0.95;;;21.40;55.00;;;;;;4991872;28;20198;-48
2022/02/04 17:47:28;;;;;;;1.60;0.90;;;21.40;55.00;;;;;;4991697;28;20235;-43